createdAt,value
2023-10-28T00:02:08.926Z,95945.58
2023-10-28T00:04:42.421Z,95947.44
2023-10-28T00:07:15.897Z,95947.33
2023-10-28T00:09:52.479Z,95952.90
2023-10-28T00:12:25.168Z,95957.27
2023-10-28T00:14:57.754Z,95961.17
2023-10-28T00:17:29.174Z,95962.41
2023-10-28T00:20:07.560Z,95965.96
2023-10-28T00:22:38.120Z,95968.67
2023-10-28T00:25:10.251Z,95972.81
2023-10-28T00:27:42.400Z,95972.60
2023-10-28T00:30:14.376Z,95980.77
2023-10-28T00:32:47.026Z,95989.56
2023-10-28T00:35:20.139Z,95993.32
2023-10-28T00:37:51.122Z,95999.55
2023-10-28T00:40:23.102Z,96003.60
2023-10-28T00:42:55.997Z,96007.76
2023-10-28T00:45:27.340Z,96013.98
2023-10-28T00:48:00.244Z,96017.80
2023-10-28T00:50:32.017Z,96015.34
2023-10-28T00:53:06.183Z,96018.42
2023-10-28T00:55:42.215Z,96016.95
2023-10-28T00:58:14.409Z,96022.41
2023-10-28T01:00:46.268Z,96024.66
2023-10-28T01:03:22.007Z,96031.23
2023-10-28T01:05:54.520Z,96033.86
2023-10-28T01:08:26.175Z,96032.19
2023-10-28T01:11:02.233Z,96039.68
2023-10-28T01:13:32.740Z,96042.15
2023-10-28T01:16:05.484Z,96045.83
2023-10-28T01:18:40.219Z,96050.45
2023-10-28T01:21:17.724Z,96056.56
2023-10-28T01:23:50.963Z,96058.98
2023-10-28T01:26:22.699Z,96062.45
2023-10-28T01:28:57.529Z,96069.39
2023-10-28T01:31:32.303Z,96075.13
2023-10-28T01:34:04.438Z,96066.27
2023-10-28T01:36:38.468Z,96070.27
2023-10-28T01:39:19.056Z,96077.30
2023-10-28T01:42:02.375Z,96077.36
2023-10-28T01:44:40.547Z,96088.82
2023-10-28T01:47:21.553Z,96091.42
2023-10-28T01:49:54.315Z,96095.27
2023-10-28T01:52:29.198Z,96090.89
2023-10-28T01:55:02.084Z,96091.62
2023-10-28T01:57:35.288Z,96104.05
2023-10-28T02:00:11.779Z,96112.00
2023-10-28T02:02:47.640Z,96108.33
2023-10-28T02:05:24.450Z,96109.72
2023-10-28T02:08:04.177Z,96116.95
2023-10-28T02:10:43.593Z,96120.44
2023-10-28T02:13:16.141Z,96131.14
2023-10-28T02:15:51.850Z,96126.86
2023-10-28T02:18:21.839Z,96125.00
2023-10-28T02:20:56.179Z,96121.20
2023-10-28T02:23:29.857Z,96121.90
2023-10-28T02:26:01.160Z,96128.26
2023-10-28T02:28:33.294Z,96124.67
2023-10-28T02:31:04.320Z,96120.70
2023-10-28T02:33:34.131Z,96123.52
2023-10-28T02:36:08.273Z,96129.04
2023-10-28T02:38:39.585Z,96136.02
2023-10-28T02:41:17.980Z,96137.42
2023-10-28T02:43:49.127Z,96141.80
2023-10-28T02:46:27.024Z,96141.70
2023-10-28T02:49:02.055Z,96142.84
2023-10-28T02:51:32.217Z,96147.13
2023-10-28T02:54:05.458Z,96150.06
2023-10-28T02:56:36.996Z,96160.73
2023-10-28T02:59:11.006Z,96164.70
2023-10-28T03:01:42.573Z,96167.39
2023-10-28T03:04:15.156Z,96169.22
2023-10-28T03:06:46.986Z,96164.60
2023-10-28T03:09:19.736Z,96168.27
2023-10-28T03:11:52.965Z,96167.98
2023-10-28T03:14:25.019Z,96176.02
2023-10-28T03:16:59.354Z,96180.59
2023-10-28T03:19:33.708Z,96185.94
2023-10-28T03:22:05.387Z,96190.27
2023-10-28T03:24:36.243Z,96196.13
2023-10-28T03:27:07.777Z,96189.46
2023-10-28T03:29:41.770Z,96191.93
2023-10-28T03:32:15.728Z,96191.70
2023-10-28T03:34:48.487Z,96194.50
2023-10-28T03:37:19.567Z,96193.55
2023-10-28T03:39:49.694Z,96192.91
2023-10-28T03:42:23.236Z,96195.64
2023-10-28T03:44:56.338Z,96200.91
2023-10-28T03:47:27.475Z,96202.85
2023-10-28T03:49:58.132Z,96205.04
2023-10-28T03:52:29.981Z,96205.08
2023-10-28T03:55:01.654Z,96208.81
2023-10-28T03:57:31.865Z,96212.88
2023-10-28T04:00:02.797Z,96213.83
2023-10-28T04:02:43.514Z,96212.50
2023-10-28T04:05:13.873Z,96219.75
2023-10-28T04:07:44.331Z,96224.02
2023-10-28T04:10:14.431Z,96220.45
2023-10-28T04:12:43.801Z,96214.01
2023-10-28T04:15:15.504Z,96221.33
2023-10-28T04:17:45.738Z,96216.70
2023-10-28T04:20:15.522Z,96212.10
2023-10-28T04:22:46.324Z,96207.44
2023-10-28T04:25:18.464Z,96206.15
2023-10-28T04:27:48.884Z,96214.77
2023-10-28T04:30:20.885Z,96219.41
2023-10-28T04:32:50.912Z,96235.63
2023-10-28T04:35:27.868Z,96241.35
2023-10-28T04:37:59.080Z,96245.04
2023-10-28T04:40:29.102Z,96243.81
2023-10-28T04:43:02.991Z,96246.06
2023-10-28T04:45:33.003Z,96243.17
2023-10-28T04:48:03.277Z,96252.08
2023-10-28T04:50:34.616Z,96254.04
2023-10-28T04:53:04.751Z,96250.73
2023-10-28T04:55:34.236Z,96256.95
2023-10-28T04:58:04.426Z,96266.44
2023-10-28T05:00:33.982Z,96265.44
2023-10-28T05:03:04.935Z,96269.88
2023-10-28T05:05:35.046Z,96277.59
2023-10-28T05:08:04.774Z,96288.00
2023-10-28T05:10:34.746Z,96288.04
2023-10-28T05:13:05.296Z,96292.26
2023-10-28T05:15:34.379Z,96301.52
2023-10-28T05:18:04.137Z,96312.17
2023-10-28T05:20:37.489Z,96310.23
2023-10-28T05:23:06.492Z,96305.77
2023-10-28T05:25:36.520Z,96316.45
2023-10-28T05:28:05.997Z,96321.87
2023-10-28T05:30:35.090Z,96326.94
2023-10-28T05:33:04.689Z,96338.13
2023-10-28T05:35:34.616Z,96334.13
2023-10-28T05:38:04.069Z,96340.64
2023-10-28T05:40:33.528Z,96343.88
2023-10-28T05:43:02.487Z,96343.20
2023-10-28T05:45:32.021Z,96349.65
2023-10-28T05:48:01.451Z,96355.71
2023-10-28T05:50:30.619Z,96363.42
2023-10-28T05:52:59.651Z,96369.63
2023-10-28T05:55:28.704Z,96374.65
2023-10-28T05:57:58.447Z,96371.84
2023-10-28T06:00:30.379Z,96382.67
2023-10-28T06:02:59.559Z,96384.27
2023-10-28T06:05:28.800Z,96385.95
2023-10-28T06:07:58.317Z,96400.30
2023-10-28T06:10:28.334Z,96391.04
2023-10-28T06:12:58.729Z,96395.44
2023-10-28T06:15:27.710Z,96399.96
2023-10-28T06:17:59.128Z,96404.25
2023-10-28T06:20:28.155Z,96407.11
2023-10-28T06:22:56.897Z,96409.48
2023-10-28T06:25:27.181Z,96414.11
2023-10-28T06:27:56.983Z,96415.13
2023-10-28T06:30:26.603Z,96412.38
2023-10-28T06:32:56.363Z,96416.66
2023-10-28T06:35:27.146Z,96422.25
2023-10-28T06:37:56.356Z,96420.18
2023-10-28T06:40:26.142Z,96423.19
2023-10-28T06:42:55.753Z,96429.27
2023-10-28T06:45:25.060Z,96429.52
2023-10-28T06:47:54.812Z,96429.90
2023-10-28T06:50:26.117Z,96434.98
2023-10-28T06:52:56.142Z,96438.46
2023-10-28T06:55:25.310Z,96437.05
2023-10-28T06:57:57.944Z,96431.95
2023-10-28T07:00:30.797Z,96431.59
2023-10-28T07:03:02.573Z,96438.83
2023-10-28T07:05:36.042Z,96437.63
2023-10-28T07:08:05.521Z,96438.65
2023-10-28T07:10:34.478Z,96439.78
2023-10-28T07:13:05.850Z,96444.31
2023-10-28T07:15:36.211Z,96451.78
2023-10-28T07:18:07.160Z,96449.53
2023-10-28T07:20:36.196Z,96453.09
2023-10-28T07:23:06.080Z,96445.75
2023-10-28T07:25:35.169Z,96449.00
2023-10-28T07:28:05.876Z,96448.55
2023-10-28T07:30:34.893Z,96448.11
2023-10-28T07:33:04.032Z,96450.10
2023-10-28T07:35:36.136Z,96460.97
2023-10-28T07:38:08.083Z,96462.48
2023-10-28T07:40:37.018Z,96458.11
2023-10-28T07:43:06.687Z,96457.42
2023-10-28T07:45:35.898Z,96463.02
2023-10-28T07:48:05.712Z,96472.96
2023-10-28T07:50:39.120Z,96472.98
2023-10-28T07:53:08.216Z,96482.63
2023-10-28T07:55:40.736Z,96488.96
2023-10-28T07:58:09.720Z,96486.26
2023-10-28T08:00:39.093Z,96489.71
2023-10-28T08:03:10.956Z,96496.41
2023-10-28T08:05:40.358Z,96500.41
2023-10-28T08:08:11.603Z,96498.13
2023-10-28T08:10:42.666Z,96500.60
2023-10-28T08:13:11.776Z,96508.86
2023-10-28T08:15:41.111Z,96504.80
2023-10-28T08:18:10.097Z,96513.80
2023-10-28T08:20:40.965Z,96512.50
2023-10-28T08:23:10.125Z,96513.05
2023-10-28T08:25:39.439Z,96517.14
2023-10-28T08:28:08.836Z,96519.55
2023-10-28T08:30:37.625Z,96524.11
2023-10-28T08:33:06.382Z,96526.64
2023-10-28T08:35:35.419Z,96535.94
2023-10-28T08:38:07.331Z,96537.67
2023-10-28T08:40:37.142Z,96537.73
2023-10-28T08:43:10.166Z,96534.90
2023-10-28T08:45:42.057Z,96536.73
2023-10-28T08:48:12.338Z,96540.35
2023-10-28T08:50:50.242Z,96540.64
2023-10-28T08:53:20.640Z,96547.31
2023-10-28T08:55:54.987Z,96548.33
2023-10-28T08:58:24.991Z,96545.02
2023-10-28T09:00:58.305Z,96552.09
2023-10-28T09:03:28.367Z,96552.27
2023-10-28T09:06:01.337Z,96554.03
2023-10-28T09:08:30.905Z,96557.77
2023-10-28T09:11:02.750Z,96551.05
2023-10-28T09:13:32.832Z,96560.48
2023-10-28T09:16:02.789Z,96558.02
2023-10-28T09:18:43.335Z,96557.63
2023-10-28T09:21:13.968Z,96552.64
2023-10-28T09:23:45.920Z,96549.25
2023-10-28T09:26:14.990Z,96555.93
2023-10-28T09:28:46.075Z,96556.58
2023-10-28T09:31:26.816Z,96551.82
2023-10-28T09:33:57.178Z,96547.36
2023-10-28T09:36:26.401Z,96545.95
2023-10-28T09:38:57.755Z,96548.56
2023-10-28T09:41:28.206Z,96555.99
2023-10-28T09:43:57.483Z,96553.90
2023-10-28T09:46:32.584Z,96552.38
2023-10-28T09:49:05.979Z,96543.66
2023-10-28T09:51:39.009Z,96541.63
2023-10-28T09:54:09.903Z,96542.36
2023-10-28T09:56:45.052Z,96547.98
2023-10-28T09:59:20.902Z,96543.80
2023-10-28T10:02:03.136Z,96550.33
2023-10-28T10:04:41.654Z,96552.27
2023-10-28T10:07:11.288Z,96556.52
2023-10-28T10:09:46.143Z,96561.09
2023-10-28T10:12:17.439Z,96563.17
2023-10-28T10:14:49.071Z,96569.26
2023-10-28T10:17:40.428Z,96568.79
2023-10-28T10:20:11.980Z,96565.54
2023-10-28T10:22:41.272Z,96569.73
2023-10-28T10:25:11.177Z,96567.89
2023-10-28T10:27:47.329Z,96557.62
2023-10-28T10:30:16.624Z,96563.95
2023-10-28T10:32:50.080Z,96558.23
2023-10-28T10:35:31.774Z,96562.98
2023-10-28T10:38:15.085Z,96563.85
2023-10-28T10:40:54.894Z,96564.88
2023-10-28T10:43:24.697Z,96560.43
2023-10-28T10:45:55.577Z,96558.02
2023-10-28T10:48:26.467Z,96562.78
2023-10-28T10:50:58.942Z,96568.93
2023-10-28T10:53:32.063Z,96572.34
2023-10-28T10:56:01.365Z,96581.13
2023-10-28T10:58:30.848Z,96585.56
2023-10-28T11:01:08.118Z,96589.42
2023-10-28T11:03:42.344Z,96587.10
2023-10-28T11:06:14.049Z,96590.00
2023-10-28T11:08:43.222Z,96586.19
2023-10-28T11:11:15.534Z,96587.73
2023-10-28T11:13:45.566Z,96591.15
2023-10-28T11:16:28.928Z,96582.61
2023-10-28T11:18:58.610Z,96577.91
2023-10-28T11:21:30.117Z,96583.86
2023-10-28T11:23:59.805Z,96584.23
2023-10-28T11:26:29.320Z,96578.73
2023-10-28T11:29:01.725Z,96582.02
2023-10-28T11:31:32.453Z,96580.29
2023-10-28T11:34:04.100Z,96573.71
2023-10-28T11:36:34.978Z,96573.73
2023-10-28T11:39:10.415Z,96572.63
2023-10-28T11:41:39.548Z,96567.90
2023-10-28T11:44:12.572Z,96567.30
2023-10-28T11:46:42.344Z,96560.96
2023-10-28T11:49:12.037Z,96555.08
2023-10-28T11:51:45.212Z,96557.44
2023-10-28T11:54:14.863Z,96552.36
2023-10-28T11:56:47.344Z,96551.70
2023-10-28T11:59:16.876Z,96554.16
2023-10-28T12:01:46.415Z,96555.40
2023-10-28T12:04:19.502Z,96562.38
2023-10-28T12:06:51.270Z,96561.77
2023-10-28T12:09:21.088Z,96559.73
2023-10-28T12:11:51.197Z,96558.53
2023-10-28T12:14:20.816Z,96560.42
2023-10-28T12:16:51.058Z,96560.45
2023-10-28T12:19:22.080Z,96565.64
2023-10-28T12:21:51.438Z,96563.39
2023-10-28T12:24:21.007Z,96562.23
2023-10-28T12:26:50.038Z,96561.83
2023-10-28T12:29:23.415Z,96559.52
2023-10-28T12:31:54.276Z,96556.79
2023-10-28T12:34:23.357Z,96556.92
2023-10-28T12:36:52.074Z,96557.94
2023-10-28T12:39:22.074Z,96561.05
2023-10-28T12:41:51.369Z,96561.29
2023-10-28T12:44:20.838Z,96560.61
2023-10-28T12:46:50.615Z,96557.46
2023-10-28T12:49:20.420Z,96555.42
2023-10-28T12:51:49.420Z,96551.49
2023-10-28T12:54:18.416Z,96546.25
2023-10-28T12:56:47.369Z,96548.23
2023-10-28T12:59:16.774Z,96546.26
2023-10-28T13:01:46.959Z,96544.09
2023-10-28T13:04:19.000Z,96547.35
2023-10-28T13:06:51.674Z,96547.23
2023-10-28T13:09:22.319Z,96548.98
2023-10-28T13:11:51.617Z,96555.64
2023-10-28T13:14:22.382Z,96553.25
2023-10-28T13:16:52.053Z,96557.88
2023-10-28T13:19:21.756Z,96561.92
2023-10-28T13:21:54.738Z,96563.42
2023-10-28T13:24:26.928Z,96568.69
2023-10-28T13:26:57.305Z,96572.73
2023-10-28T13:29:26.810Z,96574.06
2023-10-28T13:31:56.267Z,96577.23
2023-10-28T13:34:26.702Z,96577.98
2023-10-28T13:36:56.171Z,96583.67
2023-10-28T13:39:31.728Z,96578.52
2023-10-28T13:42:03.383Z,96574.70
2023-10-28T13:44:32.207Z,96568.21
2023-10-28T13:47:05.478Z,96568.30
2023-10-28T13:49:34.967Z,96571.89
2023-10-28T13:52:07.027Z,96574.65
2023-10-28T13:54:36.450Z,96577.21
2023-10-28T13:57:05.560Z,96578.28
2023-10-28T13:59:36.692Z,96575.97
2023-10-28T14:02:06.422Z,96576.61
2023-10-28T14:04:36.636Z,96572.02
2023-10-28T14:07:05.599Z,96580.39
2023-10-28T14:09:35.707Z,96583.02
2023-10-28T14:12:06.568Z,96584.90
2023-10-28T14:14:35.577Z,96584.83
2023-10-28T14:17:06.301Z,96582.94
2023-10-28T14:19:35.467Z,96586.15
2023-10-28T14:22:04.907Z,96582.84
2023-10-28T14:24:35.413Z,96586.67
2023-10-28T14:27:04.920Z,96589.86
2023-10-28T14:29:36.133Z,96590.55
2023-10-28T14:32:05.902Z,96592.19
2023-10-28T14:34:34.861Z,96585.36
2023-10-28T14:37:05.809Z,96586.33
2023-10-28T14:39:36.580Z,96592.34
2023-10-28T14:42:09.515Z,96599.85
2023-10-28T14:44:38.683Z,96599.87
2023-10-28T14:47:07.534Z,96606.95
2023-10-28T14:49:37.931Z,96604.87
2023-10-28T14:52:07.399Z,96600.30
2023-10-28T14:54:36.317Z,96597.02
2023-10-28T14:57:06.833Z,96603.79
2023-10-28T14:59:48.070Z,96605.80
2023-10-28T15:02:19.787Z,96601.63
2023-10-28T15:04:49.961Z,96610.77
2023-10-28T15:07:22.515Z,96611.56
2023-10-28T15:09:53.618Z,96612.73
2023-10-28T15:12:26.524Z,96622.83
2023-10-28T15:14:55.635Z,96629.33
2023-10-28T15:17:27.422Z,96633.52
2023-10-28T15:19:56.986Z,96630.42
2023-10-28T15:22:26.694Z,96633.40
2023-10-28T15:24:56.390Z,96632.64
2023-10-28T15:27:25.277Z,96638.20
2023-10-28T15:29:56.831Z,96641.43
2023-10-28T15:32:26.540Z,96648.41
2023-10-28T15:34:55.741Z,96654.48
2023-10-28T15:37:24.555Z,96654.41
2023-10-28T15:39:53.733Z,96661.51
2023-10-28T15:42:24.435Z,96666.90
2023-10-28T15:44:55.703Z,96669.16
2023-10-28T15:47:33.983Z,96673.57
2023-10-28T15:50:07.980Z,96672.48
2023-10-28T15:52:40.200Z,96670.07
2023-10-28T15:55:09.878Z,96674.23
2023-10-28T15:57:39.142Z,96677.77
2023-10-28T16:00:11.744Z,96678.98
2023-10-28T16:02:41.523Z,96679.50
2023-10-28T16:05:11.617Z,96684.14
2023-10-28T16:07:40.902Z,96690.58
2023-10-28T16:10:10.938Z,96693.17
2023-10-28T16:12:43.252Z,96692.52
2023-10-28T16:15:16.284Z,96695.80
2023-10-28T16:17:45.430Z,96700.58
2023-10-28T16:20:16.036Z,96704.63
2023-10-28T16:22:47.865Z,96702.80
2023-10-28T16:25:19.830Z,96704.29
2023-10-28T16:27:49.445Z,96707.79
2023-10-28T16:30:23.960Z,96710.46
2023-10-28T16:32:53.920Z,96715.52
2023-10-28T16:35:23.953Z,96719.19
2023-10-28T16:37:53.475Z,96718.23
2023-10-28T16:40:22.901Z,96718.64
2023-10-28T16:42:51.731Z,96722.21
2023-10-28T16:45:21.086Z,96719.48
2023-10-28T16:47:50.796Z,96714.04
2023-10-28T16:50:20.508Z,96712.44
2023-10-28T16:52:49.703Z,96714.83
2023-10-28T16:55:22.685Z,96713.13
2023-10-28T16:57:52.096Z,96713.38
2023-10-28T17:00:21.849Z,96710.81
2023-10-28T17:02:51.031Z,96714.86
2023-10-28T17:05:19.912Z,96710.09
2023-10-28T17:07:49.092Z,96709.86
2023-10-28T17:10:19.014Z,96718.72
2023-10-28T17:12:49.564Z,96717.50
2023-10-28T17:15:18.547Z,96720.06
2023-10-28T17:17:47.188Z,96722.02
2023-10-28T17:20:16.399Z,96715.10
2023-10-28T17:22:46.121Z,96717.00
2023-10-28T17:25:16.231Z,96726.05
2023-10-28T17:27:45.608Z,96723.64
2023-10-28T17:30:15.223Z,96721.55
2023-10-28T17:32:44.528Z,96714.77
2023-10-28T17:35:14.521Z,96709.67
2023-10-28T17:37:50.625Z,96714.85
2023-10-28T17:40:21.154Z,96720.13
2023-10-28T17:42:50.551Z,96729.64
2023-10-28T17:45:19.443Z,96732.51
2023-10-28T17:47:48.713Z,96734.48
2023-10-28T17:50:19.871Z,96744.23
2023-10-28T17:52:49.389Z,96754.03
2023-10-28T17:55:18.181Z,96756.38
2023-10-28T17:57:48.711Z,96760.39
2023-10-28T18:00:21.333Z,96767.14
2023-10-28T18:02:50.095Z,96769.56
2023-10-28T18:05:19.312Z,96766.79
2023-10-28T18:07:48.364Z,96765.96
2023-10-28T18:10:20.199Z,96771.35
2023-10-28T18:12:50.748Z,96770.08
2023-10-28T18:15:22.719Z,96770.11
2023-10-28T18:17:51.960Z,96772.59
2023-10-28T18:20:21.494Z,96770.12
2023-10-28T18:22:50.408Z,96767.09
2023-10-28T18:25:19.618Z,96770.69
2023-10-28T18:27:50.035Z,96775.32
2023-10-28T18:30:19.228Z,96777.14
2023-10-28T18:32:47.963Z,96779.06
2023-10-28T18:35:17.450Z,96781.71
2023-10-28T18:37:46.420Z,96791.17
2023-10-28T18:40:16.533Z,96795.34
2023-10-28T18:42:46.144Z,96791.83
2023-10-28T18:45:15.876Z,96791.92
2023-10-28T18:47:46.377Z,96791.91
2023-10-28T18:50:18.670Z,96797.02
2023-10-28T18:52:48.667Z,96798.91
2023-10-28T18:55:17.874Z,96812.81
2023-10-28T18:57:46.962Z,96822.34
2023-10-28T19:00:16.317Z,96827.19
2023-10-28T19:02:45.557Z,96819.02
2023-10-28T19:05:15.120Z,96811.48
2023-10-28T19:07:45.692Z,96814.16
2023-10-28T19:10:14.995Z,96810.39
2023-10-28T19:12:43.783Z,96808.38
2023-10-28T19:15:13.089Z,96806.04
2023-10-28T19:17:41.950Z,96803.42
2023-10-28T19:20:11.419Z,96802.17
2023-10-28T19:22:40.273Z,96804.42
2023-10-28T19:25:09.890Z,96808.16
2023-10-28T19:27:39.295Z,96809.34
2023-10-28T19:30:08.988Z,96809.30
2023-10-28T19:32:37.919Z,96816.71
2023-10-28T19:35:13.339Z,96814.92
2023-10-28T19:37:42.315Z,96812.67
2023-10-28T19:40:11.592Z,96811.05
2023-10-28T19:42:40.808Z,96812.05
2023-10-28T19:45:10.530Z,96822.81
2023-10-28T19:47:40.088Z,96833.71
2023-10-28T19:50:10.054Z,96836.26
2023-10-28T19:52:39.378Z,96830.55
2023-10-28T19:55:09.428Z,96822.02
2023-10-28T19:57:38.461Z,96821.55
2023-10-28T20:00:13.618Z,96826.25
2023-10-28T20:02:47.054Z,96828.98
2023-10-28T20:05:22.165Z,96834.95
2023-10-28T20:07:53.061Z,96834.14
2023-10-28T20:10:22.262Z,96838.54
2023-10-28T20:12:51.667Z,96842.20
2023-10-28T20:15:21.162Z,96846.23
2023-10-28T20:17:50.413Z,96860.24
2023-10-28T20:20:19.808Z,96866.80
2023-10-28T20:22:52.001Z,96872.60
2023-10-28T20:25:21.339Z,96887.46
2023-10-28T20:27:50.223Z,96899.78
2023-10-28T20:30:22.369Z,96896.63
2023-10-28T20:32:51.668Z,96896.70
2023-10-28T20:35:20.728Z,96892.84
2023-10-28T20:37:50.295Z,96898.40
2023-10-28T20:40:19.699Z,96902.92
2023-10-28T20:42:48.694Z,96904.79
2023-10-28T20:45:22.611Z,96909.36
2023-10-28T20:47:53.244Z,96915.20
2023-10-28T20:50:22.233Z,96918.98
2023-10-28T20:52:52.142Z,96921.48
2023-10-28T20:55:21.657Z,96923.35
2023-10-28T20:57:54.513Z,96921.63
2023-10-28T21:00:25.269Z,96925.33
2023-10-28T21:02:54.968Z,96925.35
2023-10-28T21:05:24.763Z,96924.36
2023-10-28T21:07:54.583Z,96922.98
2023-10-28T21:10:23.915Z,96930.64
2023-10-28T21:12:53.004Z,96932.77
2023-10-28T21:15:23.341Z,96934.47
2023-10-28T21:17:53.544Z,96933.83
2023-10-28T21:20:23.362Z,96936.82
2023-10-28T21:22:52.957Z,96940.51
2023-10-28T21:25:24.277Z,96941.94
2023-10-28T21:27:55.426Z,96948.45
2023-10-28T21:30:25.058Z,96962.95
2023-10-28T21:32:56.270Z,96964.77
2023-10-28T21:35:26.766Z,96963.14
2023-10-28T21:37:56.062Z,96959.69
2023-10-28T21:40:28.122Z,96958.77
2023-10-28T21:42:57.818Z,96963.71
2023-10-28T21:45:27.026Z,96966.99
2023-10-28T21:47:57.617Z,96966.61
2023-10-28T21:50:27.360Z,96959.45
2023-10-28T21:52:58.071Z,96950.70
2023-10-28T21:55:28.145Z,96954.96
2023-10-28T21:57:57.085Z,96947.27
2023-10-28T22:00:42.151Z,96940.74
2023-10-28T22:03:15.051Z,96935.42
2023-10-28T22:05:47.139Z,96944.16
2023-10-28T22:08:18.248Z,96951.80
2023-10-28T22:10:48.479Z,96953.45
2023-10-28T22:13:17.878Z,96954.80
2023-10-28T22:15:47.782Z,96953.23
2023-10-28T22:18:17.372Z,96961.66
2023-10-28T22:20:48.062Z,96968.88
2023-10-28T22:23:19.828Z,96972.88
2023-10-28T22:25:49.044Z,96977.52
2023-10-28T22:28:19.511Z,96974.33
2023-10-28T22:30:50.754Z,96975.88
2023-10-28T22:33:19.909Z,96987.02
2023-10-28T22:35:50.607Z,96988.13
2023-10-28T22:38:23.076Z,96993.94
2023-10-28T22:40:52.970Z,96993.48
2023-10-28T22:43:23.925Z,96992.74
2023-10-28T22:45:54.739Z,96987.04
2023-10-28T22:48:27.578Z,96987.98
2023-10-28T22:50:58.320Z,96983.23
2023-10-28T22:53:29.291Z,96984.27
2023-10-28T22:55:59.031Z,96987.95
2023-10-28T22:58:28.205Z,96988.78
2023-10-28T23:01:02.544Z,96991.86
2023-10-28T23:03:34.533Z,96990.66
2023-10-28T23:06:07.245Z,96989.16
2023-10-28T23:08:37.917Z,96987.74
2023-10-28T23:11:08.675Z,96986.56
2023-10-28T23:13:39.474Z,96989.09
2023-10-28T23:16:12.889Z,96993.09
2023-10-28T23:18:47.341Z,96987.77
2023-10-28T23:21:17.896Z,96987.74
2023-10-28T23:23:49.636Z,96986.05
2023-10-28T23:26:24.207Z,96985.46
2023-10-28T23:28:54.452Z,96984.61
2023-10-28T23:31:24.681Z,96988.98
2023-10-28T23:33:56.032Z,96987.58
2023-10-28T23:36:27.606Z,96992.31
2023-10-28T23:38:58.190Z,96994.05
2023-10-28T23:41:29.095Z,96997.34
2023-10-28T23:44:00.349Z,96995.80
2023-10-28T23:46:30.484Z,96999.34
2023-10-28T23:49:01.680Z,96998.98
2023-10-28T23:51:34.071Z,96992.56
2023-10-28T23:54:06.009Z,96994.21
2023-10-28T23:56:39.605Z,96992.75
2023-10-28T23:59:09.444Z,96991.40
